Time;durP1;ratioP1;P1;durP2;ratioP2;P2;SDS_P1;SDS_P2;PMS_P1;PMS_P2;Temp;Humidity;BMP_temperature;BMP_pressure;BME280_temperature;BME280_humidity;BME280_pressure;Samples;Min_cycle;Max_cycle;Signal;HPM_P1;HPM_P2
2021/12/12 00:01:02;;;;;;;12.25;6.97;;;5.10;99.90;;;;;;5035387;28;20022;-81
2021/12/12 00:03:40;;;;;;;11.57;7.35;;;5.10;99.90;;;;;;5027074;28;20488;-75
2021/12/12 00:06:30;;;;;;;10.45;7.07;;;5.10;99.90;;;;;;5035433;28;20021;-77
2021/12/12 00:09:01;;;;;;;16.50;9.90;;;5.10;99.90;;;;;;5033750;28;20022;-81
2021/12/12 00:11:29;;;;;;;12.52;7.78;;;5.10;99.90;;;;;;5034676;28;20033;-76
2021/12/12 00:14:13;;;;;;;13.15;7.50;;;5.10;99.90;;;;;;5035040;28;20022;-78
2021/12/12 00:16:40;;;;;;;11.68;7.05;;;5.10;99.90;;;;;;5034898;28;20072;-78
2021/12/12 00:19:06;;;;;;;14.55;7.90;;;5.00;99.90;;;;;;5033681;28;20083;-79
2021/12/12 00:21:33;;;;;;;14.38;8.23;;;5.00;99.90;;;;;;5034748;28;20421;-81
2021/12/12 00:24:00;;;;;;;15.25;8.23;;;5.00;99.90;;;;;;5035074;28;20021;-74
2021/12/12 00:26:26;;;;;;;13.45;8.00;;;4.90;99.90;;;;;;5034766;28;20079;-74
2021/12/12 00:28:53;;;;;;;16.92;8.63;;;4.90;99.90;;;;;;5034474;28;20037;-74
2021/12/12 00:31:20;;;;;;;13.48;7.82;;;4.90;99.90;;;;;;5034190;28;20481;-76
2021/12/12 00:33:50;;;;;;;13.63;7.60;;;4.90;99.90;;;;;;5034506;28;20028;-81
2021/12/12 00:36:19;;;;;;;14.75;8.50;;;4.90;99.90;;;;;;5033838;28;20116;-80
2021/12/12 00:38:48;;;;;;;16.33;9.65;;;4.90;99.90;;;;;;5033454;28;20466;-73
2021/12/12 00:41:19;;;;;;;13.07;7.80;;;4.90;99.90;;;;;;5034356;28;20517;-81
2021/12/12 00:43:50;;;;;;;15.30;8.40;;;4.90;99.90;;;;;;5034026;28;20108;-79
2021/12/12 00:46:17;;;;;;;13.27;7.43;;;4.90;99.90;;;;;;5032628;28;20057;-79
2021/12/12 00:48:45;;;;;;;12.90;8.05;;;4.90;99.90;;;;;;5034676;28;20033;-82
2021/12/12 00:51:15;;;;;;;13.98;7.28;;;5.00;99.90;;;;;;5034525;28;20040;-76
2021/12/12 00:53:43;;;;;;;14.02;8.25;;;4.90;99.90;;;;;;5032980;28;20062;-79
2021/12/12 00:56:10;;;;;;;13.75;7.97;;;5.00;99.90;;;;;;5033072;28;20525;-80
2021/12/12 00:58:37;;;;;;;10.45;6.68;;;5.00;99.90;;;;;;5033363;28;20026;-77
2021/12/12 01:01:19;;;;;;;14.55;7.82;;;5.00;99.90;;;;;;5033914;28;20049;-77
2021/12/12 01:03:49;;;;;;;13.82;7.82;;;5.10;99.90;;;;;;5033892;28;20014;-77
2021/12/12 01:06:17;;;;;;;12.07;6.90;;;5.10;99.90;;;;;;5033783;28;20049;-81
2021/12/12 01:08:45;;;;;;;12.27;7.13;;;5.20;99.90;;;;;;5033378;28;20045;-75
2021/12/12 01:11:18;;;;;;;12.55;7.43;;;5.20;99.90;;;;;;5033943;28;20386;-82
2021/12/12 01:13:45;;;;;;;11.65;6.75;;;5.30;99.90;;;;;;5033395;28;20038;-76
2021/12/12 01:16:26;;;;;;;10.70;6.90;;;5.40;99.90;;;;;;5033396;28;20095;-77
2021/12/12 01:19:00;;;;;;;10.25;5.88;;;5.40;99.90;;;;;;5032894;28;20088;-79
2021/12/12 01:21:39;;;;;;;9.73;6.28;;;5.40;99.90;;;;;;5033007;28;20136;-80
2021/12/12 01:24:09;;;;;;;10.48;6.80;;;5.40;99.90;;;;;;5033078;28;20033;-81
2021/12/12 01:26:35;;;;;;;12.68;6.88;;;5.40;99.90;;;;;;5031981;28;20067;-76
2021/12/12 01:29:03;;;;;;;11.18;7.38;;;5.40;99.90;;;;;;5031900;28;20478;-80
2021/12/12 01:31:36;;;;;;;12.32;7.35;;;5.40;99.90;;;;;;5032227;28;20086;-79
2021/12/12 01:34:11;;;;;;;12.77;7.07;;;5.40;99.90;;;;;;5032633;28;20017;-80
2021/12/12 01:37:05;;;;;;;11.68;7.13;;;5.40;99.90;;;;;;5032791;28;20045;-78
2021/12/12 01:39:40;;;;;;;12.55;7.15;;;5.30;99.90;;;;;;5033143;28;20385;-80
2021/12/12 01:42:37;;;;;;;12.95;6.47;;;5.30;99.90;;;;;;5033068;28;20025;-78
2021/12/12 01:45:09;;;;;;;10.30;6.85;;;5.40;99.90;;;;;;5010261;28;20089;-76
2021/12/12 01:47:36;;;;;;;13.73;7.22;;;5.30;99.90;;;;;;5032589;28;20025;-77
2021/12/12 01:50:14;;;;;;;11.60;6.80;;;5.30;99.90;;;;;;5032357;28;20512;-77
2021/12/12 01:52:41;;;;;;;13.15;7.70;;;5.30;99.90;;;;;;5033038;28;20504;-82
2021/12/12 01:55:35;;;;;;;13.65;7.07;;;5.20;99.90;;;;;;5033070;28;20428;-81
2021/12/12 01:58:08;;;;;;;15.60;7.93;;;5.20;99.90;;;;;;5032853;28;20104;-81
2021/12/12 02:00:41;;;;;;;13.80;7.03;;;5.20;99.90;;;;;;5032710;28;20052;-73
2021/12/12 02:03:09;;;;;;;14.40;7.80;;;5.20;99.90;;;;;;5032627;28;20029;-75
2021/12/12 02:05:36;;;;;;;14.30;7.45;;;5.10;99.90;;;;;;5032811;28;20021;-75
2021/12/12 02:08:13;;;;;;;13.93;7.28;;;5.10;99.90;;;;;;5032692;28;20040;-78
2021/12/12 02:10:48;;;;;;;12.60;7.30;;;5.10;99.90;;;;;;5033044;28;20120;-79
2021/12/12 02:13:17;;;;;;;11.75;7.28;;;5.00;99.90;;;;;;5033038;28;20033;-78
2021/12/12 02:15:45;;;;;;;13.38;7.97;;;5.00;99.90;;;;;;5032947;28;20022;-82
2021/12/12 02:18:14;;;;;;;10.93;7.00;;;5.00;99.90;;;;;;5032783;28;20025;-76
2021/12/12 02:20:54;;;;;;;12.65;7.78;;;5.00;99.90;;;;;;5032817;28;20018;-78
2021/12/12 02:37:07;;;;;;;10.90;6.85;;;5.00;99.90;;;;;;5032360;28;20048;-80
2021/12/12 02:39:34;;;;;;;10.02;6.22;;;5.00;99.90;;;;;;5032523;28;20440;-77
2021/12/12 02:42:07;;;;;;;9.55;5.95;;;5.10;99.90;;;;;;5032549;28;20109;-79
2021/12/12 02:44:35;;;;;;;9.77;6.30;;;5.10;99.90;;;;;;5031349;28;20075;-75
2021/12/12 02:47:10;;;;;;;10.15;6.25;;;5.10;99.90;;;;;;5032048;28;20025;-81
2021/12/12 02:49:52;;;;;;;11.52;6.95;;;5.10;99.90;;;;;;5030644;28;20033;-77
2021/12/12 02:52:30;;;;;;;10.43;6.70;;;5.10;99.90;;;;;;5032212;28;20466;-77
2021/12/12 02:55:12;;;;;;;11.38;6.18;;;5.10;99.90;;;;;;5031129;28;20107;-75
2021/12/12 02:57:38;;;;;;;;;;;5.20;99.90;;;;;;5032552;28;20033;-76
2021/12/12 03:00:07;;;;;;;10.30;5.78;;;5.20;99.90;;;;;;5032828;28;19909;-75
2021/12/12 03:02:42;;;;;;;9.32;5.65;;;5.20;99.90;;;;;;5036301;28;20026;-75
2021/12/12 03:05:08;;;;;;;11.85;6.30;;;5.20;99.90;;;;;;5036124;28;20026;-77
2021/12/12 03:07:33;;;;;;;8.82;6.13;;;5.20;99.90;;;;;;5035713;28;20029;-80
2021/12/12 03:10:00;;;;;;;8.00;5.30;;;5.20;99.90;;;;;;5035829;28;20037;-80
2021/12/12 03:12:33;;;;;;;14.88;6.05;;;5.20;99.90;;;;;;5036021;28;20021;-75
2021/12/12 03:15:05;;;;;;;11.15;6.35;;;5.20;99.90;;;;;;5035797;28;20024;-79
2021/12/12 03:17:31;;;;;;;11.38;6.13;;;5.20;99.90;;;;;;5035975;28;20101;-80
2021/12/12 03:20:06;;;;;;;9.13;5.88;;;5.20;99.90;;;;;;5035886;28;20036;-74
2021/12/12 03:22:31;;;;;;;11.93;5.80;;;5.10;99.90;;;;;;5035432;28;20044;-80
2021/12/12 03:24:57;;;;;;;9.27;5.75;;;5.10;99.90;;;;;;5034353;28;20029;-74
2021/12/12 03:27:23;;;;;;;10.77;6.32;;;5.10;99.90;;;;;;5035875;28;20021;-77
2021/12/12 03:29:51;;;;;;;10.88;6.47;;;5.00;99.90;;;;;;5035854;28;20088;-79
2021/12/12 03:32:20;;;;;;;12.15;5.95;;;5.10;99.90;;;;;;5035675;28;20030;-79
2021/12/12 03:34:50;;;;;;;11.80;6.55;;;5.10;99.90;;;;;;5035669;28;20025;-78
2021/12/12 03:37:18;;;;;;;11.48;6.88;;;5.10;99.90;;;;;;5034724;28;20026;-79
2021/12/12 03:39:47;;;;;;;13.43;7.40;;;5.10;99.90;;;;;;5035000;28;20021;-79
2021/12/12 03:42:18;;;;;;;12.10;6.97;;;5.10;99.90;;;;;;5035470;28;20367;-75
2021/12/12 03:44:46;;;;;;;10.15;6.30;;;5.10;99.90;;;;;;5035103;28;20649;-76
2021/12/12 03:47:14;;;;;;;11.70;6.85;;;5.00;99.90;;;;;;5034789;28;20545;-75
2021/12/12 03:49:40;;;;;;;10.93;6.22;;;5.00;99.90;;;;;;5035188;28;20041;-79
2021/12/12 03:52:08;;;;;;;9.40;6.15;;;5.00;99.90;;;;;;5035319;28;20087;-80
2021/12/12 03:54:34;;;;;;;10.43;6.55;;;5.00;99.90;;;;;;5035472;28;20048;-79
2021/12/12 03:57:01;;;;;;;10.27;6.22;;;4.90;99.90;;;;;;5035086;28;20465;-74
2021/12/12 03:59:27;;;;;;;10.52;6.38;;;4.90;99.90;;;;;;5035281;28;20097;-80
2021/12/12 04:01:53;;;;;;;10.30;6.32;;;4.90;99.90;;;;;;5035122;28;20029;-80
2021/12/12 04:04:25;;;;;;;10.75;6.60;;;4.90;99.90;;;;;;5035128;28;20100;-76
2021/12/12 04:06:51;;;;;;;9.68;6.07;;;4.90;99.90;;;;;;5035112;28;20069;-80
2021/12/12 04:09:18;;;;;;;9.73;6.40;;;4.90;99.90;;;;;;5034772;28;20040;-81
2021/12/12 04:11:51;;;;;;;11.90;6.68;;;4.90;99.90;;;;;;5033381;28;20103;-79
2021/12/12 04:14:18;;;;;;;13.73;6.63;;;4.90;99.90;;;;;;5034155;28;20026;-78
2021/12/12 04:16:48;;;;;;;10.38;6.10;;;4.80;99.90;;;;;;5035077;28;20033;-77
2021/12/12 04:19:14;;;;;;;10.30;5.90;;;4.80;99.90;;;;;;5034900;28;20041;-75
2021/12/12 04:21:40;;;;;;;10.52;6.38;;;4.80;99.90;;;;;;5033887;28;20469;-76
2021/12/12 04:24:08;;;;;;;11.68;5.88;;;4.80;99.90;;;;;;5034510;28;20108;-78
2021/12/12 04:26:38;;;;;;;12.00;6.78;;;4.80;99.90;;;;;;5034584;28;20030;-77
2021/12/12 04:29:12;;;;;;;9.55;5.75;;;4.80;99.90;;;;;;5034436;28;20557;-79
2021/12/12 04:31:41;;;;;;;8.40;5.57;;;4.80;99.90;;;;;;5034224;28;20091;-77
2021/12/12 04:34:08;;;;;;;9.50;5.90;;;4.70;99.90;;;;;;5034389;28;20047;-80
2021/12/12 04:36:38;;;;;;;8.48;5.63;;;4.70;99.90;;;;;;5034530;28;20397;-81
2021/12/12 04:39:36;;;;;;;7.65;4.82;;;4.70;99.90;;;;;;5034425;28;20030;-79
2021/12/12 04:42:11;;;;;;;9.13;5.63;;;4.80;99.90;;;;;;5033531;28;20029;-74
2021/12/12 04:44:40;;;;;;;8.07;5.18;;;4.80;99.90;;;;;;5034072;28;20526;-80
2021/12/12 04:50:24;;;;;;;7.88;5.20;;;4.90;99.90;;;;;;5013764;28;20088;-75
2021/12/12 04:52:59;;;;;;;10.18;5.57;;;4.90;99.90;;;;;;5015420;28;20048;-79
2021/12/12 04:55:33;;;;;;;9.55;5.57;;;4.90;99.90;;;;;;5034059;28;20028;-81
2021/12/12 04:58:22;;;;;;;8.50;5.38;;;4.90;99.90;;;;;;5034293;28;20049;-80
2021/12/12 05:00:54;;;;;;;10.52;5.72;;;4.90;99.90;;;;;;5033906;28;20026;-82
2021/12/12 05:03:33;;;;;;;8.90;5.53;;;4.80;99.90;;;;;;5033022;28;20036;-77
2021/12/12 05:06:28;;;;;;;7.57;5.45;;;4.80;99.90;;;;;;5020648;28;20048;-81
2021/12/12 05:09:07;;;;;;;7.38;5.00;;;4.70;99.90;;;;;;5029122;28;20039;-80
2021/12/12 05:11:44;;;;;;;8.43;5.35;;;4.70;99.90;;;;;;5033915;28;20112;-77
2021/12/12 05:14:21;;;;;;;9.00;5.78;;;4.60;99.90;;;;;;5014281;28;20033;-79
2021/12/12 05:16:51;;;;;;;7.63;5.15;;;4.60;99.90;;;;;;5014039;28;20029;-78
2021/12/12 05:19:24;;;;;;;9.60;5.93;;;4.60;99.90;;;;;;5013802;28;20049;-78
2021/12/12 05:21:56;;;;;;;9.32;6.03;;;4.60;99.90;;;;;;5013320;28;20029;-76
2021/12/12 05:24:26;;;;;;;8.38;5.80;;;4.50;99.90;;;;;;5013486;28;20036;-75
2021/12/12 05:26:58;;;;;;;9.65;5.75;;;4.60;99.90;;;;;;5029580;28;20041;-80
2021/12/12 05:29:31;;;;;;;10.75;6.07;;;4.60;99.90;;;;;;5032961;28;20045;-76
2021/12/12 05:32:01;;;;;;;9.85;6.10;;;4.60;99.90;;;;;;5033039;28;20022;-81
2021/12/12 05:34:30;;;;;;;10.43;6.65;;;4.70;99.90;;;;;;5033373;28;20045;-78
2021/12/12 05:36:57;;;;;;;11.80;6.95;;;4.70;99.90;;;;;;5033124;28;20014;-75
2021/12/12 05:39:24;;;;;;;13.52;8.00;;;4.70;99.90;;;;;;5033239;28;20026;-80
2021/12/12 05:41:53;;;;;;;11.10;7.18;;;4.70;99.90;;;;;;5033179;28;20028;-77
2021/12/12 05:44:19;;;;;;;10.75;6.32;;;4.60;99.90;;;;;;5033070;28;20033;-80
2021/12/12 05:46:45;;;;;;;10.57;6.47;;;4.60;99.90;;;;;;5032911;28;20067;-81
2021/12/12 05:49:12;;;;;;;12.35;7.05;;;4.60;99.90;;;;;;5031642;28;20098;-76
2021/12/12 05:51:38;;;;;;;11.68;6.80;;;4.60;99.90;;;;;;5032951;28;20057;-81
2021/12/12 05:54:05;;;;;;;10.27;6.63;;;4.60;99.90;;;;;;5032868;28;20064;-79
2021/12/12 05:56:35;;;;;;;12.40;7.30;;;4.60;99.90;;;;;;5032403;28;20104;-79
2021/12/12 05:59:01;;;;;;;11.88;6.78;;;4.50;99.90;;;;;;5032669;28;20166;-81
2021/12/12 06:01:29;;;;;;;11.98;6.60;;;4.50;99.90;;;;;;5032787;28;20472;-77
2021/12/12 06:03:54;;;;;;;12.18;6.95;;;4.50;99.90;;;;;;5032899;28;20029;-81
2021/12/12 06:06:27;;;;;;;11.95;6.50;;;4.50;99.90;;;;;;5033079;28;20020;-78
2021/12/12 06:08:58;;;;;;;14.20;7.38;;;4.50;99.90;;;;;;5032546;28;20026;-76
2021/12/12 06:11:26;;;;;;;13.50;7.43;;;4.40;99.90;;;;;;5031640;28;20481;-76
2021/12/12 06:13:54;;;;;;;13.52;7.65;;;4.30;99.90;;;;;;5032911;28;20061;-75
2021/12/12 06:16:21;;;;;;;11.27;6.97;;;4.30;99.90;;;;;;5032781;28;20018;-76
2021/12/12 06:18:58;;;;;;;11.60;6.60;;;4.30;99.90;;;;;;5032859;28;20025;-79
2021/12/12 06:21:25;;;;;;;11.93;7.10;;;4.20;99.90;;;;;;5032551;28;20034;-75
2021/12/12 06:23:52;;;;;;;11.15;7.50;;;4.30;99.90;;;;;;5032685;28;20108;-75
2021/12/12 06:26:19;;;;;;;9.95;6.22;;;4.30;99.90;;;;;;5032522;28;20049;-78
2021/12/12 06:28:45;;;;;;;11.45;6.22;;;4.20;99.90;;;;;;5031718;28;20042;-77
2021/12/12 06:31:11;;;;;;;11.60;6.43;;;4.20;99.90;;;;;;5032686;28;20029;-80
2021/12/12 06:33:39;;;;;;;8.50;5.20;;;4.30;99.90;;;;;;5032390;28;20104;-80
2021/12/12 06:36:08;;;;;;;10.13;6.00;;;4.30;99.90;;;;;;5034531;28;20032;-78
2021/12/12 06:38:36;;;;;;;10.82;6.53;;;4.30;99.90;;;;;;5034886;28;20389;-78
2021/12/12 06:41:03;;;;;;;8.60;5.20;;;4.40;99.90;;;;;;5036331;28;20026;-80
2021/12/12 06:43:29;;;;;;;10.40;6.63;;;4.40;99.90;;;;;;5036428;28;20072;-79
2021/12/12 06:45:55;;;;;;;10.10;5.75;;;4.40;99.90;;;;;;5036011;28;20025;-75
2021/12/12 06:48:22;;;;;;;11.35;6.68;;;4.40;99.90;;;;;;5036002;28;20109;-81
2021/12/12 06:50:50;;;;;;;12.63;7.88;;;4.40;99.90;;;;;;5035794;28;20065;-79
2021/12/12 06:53:19;;;;;;;18.98;9.93;;;4.40;99.90;;;;;;5034898;28;20045;-81
2021/12/12 06:55:46;;;;;;;19.33;10.13;;;4.40;99.90;;;;;;5034568;28;20026;-81
2021/12/12 06:58:17;;;;;;;18.05;9.20;;;4.40;99.90;;;;;;5035635;28;20351;-76
2021/12/12 07:00:46;;;;;;;20.73;11.45;;;4.40;99.90;;;;;;5036131;28;20036;-79
2021/12/12 07:03:17;;;;;;;11.77;7.30;;;4.40;99.90;;;;;;5022663;28;20036;-77
2021/12/12 07:05:43;;;;;;;16.05;11.10;;;4.50;99.90;;;;;;5036094;28;20108;-77
2021/12/12 07:08:10;;;;;;;22.05;11.02;;;4.70;99.90;;;;;;5034535;28;20022;-76
2021/12/12 07:10:36;;;;;;;10.10;6.72;;;4.90;99.90;;;;;;5036050;28;20440;-81
2021/12/12 07:13:03;;;;;;;10.50;6.00;;;5.20;99.90;;;;;;5036021;28;20056;-82
2021/12/12 07:15:32;;;;;;;11.90;6.72;;;5.50;99.90;;;;;;5035921;28;20037;-77
2021/12/12 07:18:00;;;;;;;10.27;6.05;;;5.80;99.90;;;;;;5035232;28;20100;-79
2021/12/12 07:20:27;;;;;;;7.35;5.15;;;6.10;99.90;;;;;;5035841;28;20034;-81
2021/12/12 07:22:53;;;;;;;8.32;5.78;;;6.40;99.90;;;;;;5035503;28;20076;-80
2021/12/12 07:25:20;;;;;;;9.13;4.65;;;6.60;99.90;;;;;;5035677;28;20034;-79
2021/12/12 07:27:49;;;;;;;12.27;5.93;;;6.90;99.90;;;;;;5034393;28;20469;-81
2021/12/12 07:30:15;;;;;;;8.27;5.13;;;7.30;99.90;;;;;;5035802;28;20378;-81
2021/12/12 07:32:41;;;;;;;9.15;5.13;;;7.70;99.90;;;;;;5035196;28;20024;-82
2021/12/12 07:35:08;;;;;;;8.23;4.97;;;8.10;99.90;;;;;;5035380;28;20068;-80
2021/12/12 07:37:35;;;;;;;9.38;4.43;;;8.30;99.90;;;;;;5035749;28;20021;-80
2021/12/12 07:40:01;;;;;;;8.23;4.47;;;8.40;99.90;;;;;;5035446;28;20061;-74
2021/12/12 07:42:27;;;;;;;7.35;4.38;;;8.60;99.90;;;;;;5034613;28;20026;-74
2021/12/12 07:44:55;;;;;;;7.13;4.85;;;8.50;99.90;;;;;;5034919;28;20049;-75
2021/12/12 07:47:21;;;;;;;9.60;5.90;;;8.60;99.90;;;;;;5034875;28;20075;-78
2021/12/12 07:49:49;;;;;;;9.43;5.00;;;8.90;99.90;;;;;;5035139;28;20108;-76
2021/12/12 07:52:19;;;;;;;6.63;4.43;;;9.50;99.90;;;;;;5035280;28;20044;-75
2021/12/12 07:54:49;;;;;;;7.65;4.43;;;10.20;99.90;;;;;;5034996;28;20034;-78
2021/12/12 07:57:16;;;;;;;7.40;4.55;;;10.70;99.90;;;;;;5033786;28;20025;-81
2021/12/12 07:59:42;;;;;;;7.45;5.47;;;11.30;99.90;;;;;;5035075;28;20017;-78
2021/12/12 08:02:11;;;;;;;9.18;4.95;;;11.80;99.90;;;;;;5035062;28;20030;-80
2021/12/12 08:04:39;;;;;;;7.18;4.15;;;12.30;99.90;;;;;;5034766;28;20022;-79
2021/12/12 08:07:12;;;;;;;11.25;3.72;;;12.50;99.90;;;;;;5035044;28;20107;-75
2021/12/12 08:09:42;;;;;;;6.57;3.28;;;12.90;99.90;;;;;;5034875;28;20041;-78
2021/12/12 08:12:13;;;;;;;5.50;3.70;;;13.20;99.90;;;;;;5034774;28;20024;-80
2021/12/12 08:14:40;;;;;;;3.45;2.80;;;14.00;99.90;;;;;;5034383;28;20017;-81
2021/12/12 08:17:07;;;;;;;4.07;3.13;;;14.60;99.90;;;;;;5034511;28;20056;-81
2021/12/12 08:19:34;;;;;;;4.28;2.88;;;15.20;98.90;;;;;;5034855;28;20029;-81
2021/12/12 08:22:05;;;;;;;7.68;5.20;;;15.50;98.40;;;;;;5034394;28;20116;-80
2021/12/12 08:24:33;;;;;;;7.00;4.97;;;15.80;97.60;;;;;;5034406;28;20018;-81
2021/12/12 08:27:00;;;;;;;9.68;6.20;;;16.10;96.40;;;;;;5017003;28;20041;-77
2021/12/12 08:29:27;;;;;;;8.65;5.00;;;16.30;95.70;;;;;;5034377;28;20040;-79
2021/12/12 08:31:55;;;;;;;7.80;4.95;;;16.60;95.80;;;;;;5034430;28;20030;-77
2021/12/12 08:34:22;;;;;;;7.88;4.88;;;17.00;95.20;;;;;;5034530;28;20025;-79
2021/12/12 08:36:50;;;;;;;6.50;4.13;;;17.20;94.50;;;;;;5033850;28;20037;-80
2021/12/12 08:39:17;;;;;;;8.75;4.30;;;17.30;93.60;;;;;;5034330;28;20025;-82
2021/12/12 08:41:46;;;;;;;6.90;4.35;;;17.90;93.30;;;;;;5013002;28;20077;-78
2021/12/12 08:44:13;;;;;;;5.90;4.10;;;18.80;91.80;;;;;;5014099;28;20092;-76
2021/12/12 08:46:44;;;;;;;5.40;4.00;;;19.40;90.10;;;;;;5020906;28;20031;-77
2021/12/12 08:49:12;;;;;;;5.93;3.97;;;19.90;88.40;;;;;;5034058;28;20076;-79
2021/12/12 08:51:46;;;;;;;5.88;2.97;;;20.50;86.20;;;;;;5034158;28;20092;-81
2021/12/12 08:54:23;;;;;;;6.15;2.90;;;21.30;83.20;;;;;;5034099;28;20037;-81
2021/12/12 08:56:51;;;;;;;8.07;5.57;;;21.80;81.00;;;;;;5032083;28;20462;-76
2021/12/12 08:59:27;;;;;;;6.65;5.18;;;22.10;79.00;;;;;;5031163;28;20127;-84
2021/12/12 09:01:57;;;;;;;6.47;4.13;;;22.10;76.20;;;;;;5033795;28;20018;-81
2021/12/12 09:04:23;;;;;;;4.82;3.33;;;22.00;74.20;;;;;;5033287;28;20465;-76
2021/12/12 09:07:08;;;;;;;3.75;3.17;;;21.40;74.20;;;;;;5033595;28;20470;-81
2021/12/12 09:09:51;;;;;;;5.75;3.80;;;20.60;75.60;;;;;;5031953;28;20037;-81
2021/12/12 09:12:25;;;;;;;4.38;3.30;;;20.00;77.00;;;;;;5031183;28;20017;-80
2021/12/12 09:14:58;;;;;;;7.20;3.20;;;19.40;77.00;;;;;;5032292;28;20083;-80
2021/12/12 09:17:39;;;;;;;4.00;2.80;;;18.80;77.70;;;;;;5031735;28;20017;-80
2021/12/12 09:20:15;;;;;;;4.00;2.70;;;18.00;79.80;;;;;;5031918;28;20029;-80
2021/12/12 09:23:00;;;;;;;4.72;3.17;;;17.30;81.20;;;;;;5030994;28;20030;-77
2021/12/12 09:25:41;;;;;;;3.75;2.90;;;16.80;83.20;;;;;;5032050;28;20120;-77
2021/12/12 09:28:16;;;;;;;5.40;3.17;;;16.40;85.20;;;;;;5031567;28;20029;-85
2021/12/12 09:30:42;;;;;;;5.10;3.58;;;16.10;88.10;;;;;;5032050;28;20076;-85
2021/12/12 09:33:12;;;;;;;6.32;3.80;;;15.90;89.80;;;;;;5031838;28;20029;-75
2021/12/12 09:35:52;;;;;;;5.35;3.75;;;15.70;91.00;;;;;;5029872;28;20021;-77
2021/12/12 09:38:31;;;;;;;6.22;3.90;;;15.50;92.10;;;;;;5024615;28;20029;-75
2021/12/12 09:41:07;;;;;;;6.65;4.20;;;15.20;93.10;;;;;;5029532;28;20037;-77
2021/12/12 09:43:59;;;;;;;10.70;4.18;;;15.00;93.90;;;;;;5030446;28;20026;-74
2021/12/12 09:46:58;;;;;;;5.65;4.32;;;14.70;94.60;;;;;;5030100;28;20066;-80
2021/12/12 09:53:04;;;;;;;9.13;4.30;;;14.20;96.00;;;;;;5031742;28;20405;-77
2021/12/12 09:55:45;;;;;;;6.18;3.58;;;14.20;96.60;;;;;;5031941;28;20024;-78
2021/12/12 09:58:42;;;;;;;7.43;4.13;;;14.30;97.00;;;;;;5031685;28;20037;-76
2021/12/12 10:01:21;;;;;;;6.65;3.97;;;14.50;97.00;;;;;;5026006;28;20033;-83
2021/12/12 10:04:02;;;;;;;7.03;4.55;;;14.80;95.70;;;;;;5029669;28;20022;-79
2021/12/12 10:07:03;;;;;;;9.60;4.68;;;15.10;95.80;;;;;;5031235;28;20025;-81
2021/12/12 10:09:43;;;;;;;6.28;4.22;;;15.40;95.60;;;;;;5008669;28;20046;-85
2021/12/12 10:12:19;;;;;;;10.10;6.10;;;15.80;95.50;;;;;;5031960;28;20026;-79
2021/12/12 10:14:59;;;;;;;4.95;3.28;;;16.10;94.20;;;;;;5032361;28;20351;-77
2021/12/12 10:17:46;;;;;;;4.25;2.90;;;16.30;93.20;;;;;;5032528;28;20025;-80
2021/12/12 10:20:20;;;;;;;4.50;3.03;;;16.80;92.40;;;;;;5032813;28;20108;-84
2021/12/12 10:23:08;;;;;;;5.22;3.10;;;17.20;92.40;;;;;;5031086;28;20025;-83
2021/12/12 10:25:48;;;;;;;5.35;3.30;;;17.40;92.10;;;;;;5032206;28;20031;-75
2021/12/12 10:28:28;;;;;;;4.07;2.70;;;17.50;91.90;;;;;;5032595;28;20029;-78
2021/12/12 10:31:04;;;;;;;9.32;2.95;;;17.60;91.40;;;;;;5032165;28;20038;-84
2021/12/12 10:33:54;;;;;;;4.80;3.05;;;17.70;91.20;;;;;;5032168;28;20036;-81
2021/12/12 10:36:26;;;;;;;7.40;3.25;;;17.70;91.10;;;;;;5030272;28;20116;-78
2021/12/12 10:39:09;;;;;;;5.18;3.28;;;17.80;91.30;;;;;;5032180;28;20393;-78
2021/12/12 10:41:38;;;;;;;5.10;3.28;;;17.80;91.40;;;;;;5032521;28;20108;-85
2021/12/12 10:44:19;;;;;;;4.38;2.90;;;17.60;91.50;;;;;;5030430;28;20084;-83
2021/12/12 10:47:10;;;;;;;4.82;3.03;;;17.60;91.30;;;;;;5032165;28;20104;-76
2021/12/12 10:49:39;;;;;;;4.25;2.97;;;17.80;91.00;;;;;;5030795;28;20045;-85
2021/12/12 10:52:15;;;;;;;5.72;2.92;;;17.90;91.00;;;;;;5031936;28;20032;-83
2021/12/12 10:55:03;;;;;;;4.78;3.03;;;17.80;91.40;;;;;;5031772;28;20033;-78
2021/12/12 10:57:32;;;;;;;4.75;3.20;;;18.00;91.40;;;;;;5033121;28;20026;-80
2021/12/12 11:00:10;;;;;;;5.35;3.47;;;18.10;91.00;;;;;;5032821;28;20031;-84
2021/12/12 11:02:44;;;;;;;5.25;3.25;;;18.10;91.10;;;;;;5030780;28;20048;-79
2021/12/12 11:05:25;;;;;;;5.68;2.83;;;18.20;90.80;;;;;;5032165;28;20469;-75
2021/12/12 11:07:58;;;;;;;8.57;3.47;;;18.20;91.10;;;;;;5031922;28;20024;-78
2021/12/12 11:10:32;;;;;;;3.95;2.85;;;18.30;91.10;;;;;;5032733;28;20450;-79
2021/12/12 11:13:03;;;;;;;5.88;2.80;;;18.20;91.60;;;;;;5029330;28;20021;-77
2021/12/12 11:15:53;;;;;;;4.97;3.45;;;18.50;91.30;;;;;;5032070;28;20036;-78
2021/12/12 11:18:25;;;;;;;6.28;3.75;;;18.50;91.20;;;;;;5031197;28;20033;-80
2021/12/12 11:21:05;;;;;;;4.22;3.75;;;18.70;91.50;;;;;;5031775;28;20101;-79
2021/12/12 11:23:37;;;;;;;7.35;4.07;;;18.80;92.00;;;;;;5033381;28;20060;-84
2021/12/12 11:26:20;;;;;;;5.55;3.95;;;18.70;92.40;;;;;;5035009;28;20018;-84
2021/12/12 11:28:52;;;;;;;8.52;4.75;;;18.70;92.60;;;;;;5034468;28;20030;-80
2021/12/12 11:31:32;;;;;;;6.20;4.40;;;18.50;93.20;;;;;;5035083;28;20041;-83
2021/12/12 11:33:58;;;;;;;6.43;4.25;;;18.20;93.60;;;;;;5034902;28;20018;-74
2021/12/12 11:36:32;;;;;;;7.00;4.15;;;18.00;93.30;;;;;;5035193;28;20380;-80
2021/12/12 11:39:36;;;;;;;7.30;5.10;;;18.00;92.70;;;;;;5033945;28;20112;-84
2021/12/12 11:42:16;;;;;;;8.45;4.60;;;17.90;93.10;;;;;;4973964;28;20035;-82
2021/12/12 11:44:50;;;;;;;4.95;3.72;;;17.70;93.40;;;;;;4974351;28;20027;-85
2021/12/12 11:47:43;;;;;;;6.47;4.40;;;17.60;93.60;;;;;;5011943;28;20029;-82
2021/12/12 11:50:30;;;;;;;7.15;4.43;;;17.20;93.70;;;;;;5035016;28;20048;-83
2021/12/12 11:53:07;;;;;;;6.18;4.43;;;17.00;93.60;;;;;;5045658;28;20065;-84
2021/12/12 11:55:41;;;;;;;5.40;3.75;;;16.80;93.30;;;;;;5032540;28;20022;-75
2021/12/12 11:58:27;;;;;;;6.65;4.40;;;16.60;93.60;;;;;;5033582;28;20371;-79
2021/12/12 12:01:17;;;;;;;8.57;5.38;;;16.30;93.30;;;;;;5034765;28;20377;-78
2021/12/12 12:04:20;;;;;;;11.68;6.18;;;16.00;92.80;;;;;;5033432;28;20485;-85
2021/12/12 12:07:24;;;;;;;5.68;4.03;;;15.50;92.40;;;;;;5033891;28;20025;-87
2021/12/12 12:10:16;;;;;;;5.10;3.33;;;15.20;92.00;;;;;;5033059;28;20041;-83
2021/12/12 12:13:06;;;;;;;6.22;3.63;;;14.80;92.80;;;;;;5035159;28;20048;-86
2021/12/12 12:16:22;;;;;;;5.10;3.38;;;14.60;93.10;;;;;;5034225;28;20485;-79
2021/12/12 12:18:59;;;;;;;4.95;3.63;;;14.20;93.50;;;;;;5008941;28;20034;-76
2021/12/12 12:22:00;;;;;;;8.82;4.30;;;13.90;93.60;;;;;;5035023;28;20075;-74
2021/12/12 12:24:40;;;;;;;8.45;4.25;;;13.50;94.40;;;;;;5035011;28;20021;-83
2021/12/12 12:27:23;;;;;;;8.15;4.10;;;13.30;94.50;;;;;;5034434;28;20053;-76
2021/12/12 12:30:00;;;;;;;4.95;3.80;;;13.10;95.00;;;;;;5034368;28;20049;-80
2021/12/12 12:33:08;;;;;;;5.35;3.67;;;12.90;95.70;;;;;;5034150;28;20018;-85
2021/12/12 12:35:51;;;;;;;5.32;3.67;;;12.80;96.20;;;;;;5013614;28;20378;-82
2021/12/12 12:39:14;;;;;;;5.18;3.72;;;12.60;96.80;;;;;;5034088;28;20436;-83
2021/12/12 12:42:10;;;;;;;7.90;4.15;;;12.40;97.50;;;;;;4973778;28;20034;-77
2021/12/12 12:45:12;;;;;;;8.48;4.78;;;12.30;98.10;;;;;;4972945;28;20086;-79
2021/12/12 12:47:41;;;;;;;6.55;4.22;;;12.20;98.60;;;;;;5028406;28;20034;-77
2021/12/12 12:50:44;;;;;;;14.27;7.38;;;12.10;98.70;;;;;;5029250;28;20469;-85
2021/12/12 12:53:43;;;;;;;7.35;4.97;;;12.00;99.00;;;;;;5033145;28;20049;-80
2021/12/12 12:56:15;;;;;;;6.18;4.28;;;12.00;99.40;;;;;;5031784;28;20060;-75
2021/12/12 12:59:38;;;;;;;6.13;4.20;;;11.90;98.90;;;;;;5032803;28;20018;-75
2021/12/12 13:02:24;;;;;;;8.32;4.80;;;11.80;98.80;;;;;;4971380;28;20539;-78
2021/12/12 13:05:07;;;;;;;6.28;4.18;;;11.60;98.50;;;;;;4971950;28;20049;-80
2021/12/12 13:07:52;;;;;;;7.70;5.00;;;11.60;98.90;;;;;;5015073;28;20618;-74
2021/12/12 13:10:21;;;;;;;7.65;5.07;;;11.50;99.60;;;;;;5032232;28;20033;-81
2021/12/12 13:13:05;;;;;;;8.52;4.88;;;11.40;99.90;;;;;;5032951;28;20086;-78
2021/12/12 13:16:06;;;;;;;17.80;9.05;;;11.40;99.90;;;;;;5032131;28;20612;-80
2021/12/12 13:18:47;;;;;;;9.00;5.47;;;11.30;99.90;;;;;;5004230;28;20100;-78
2021/12/12 13:21:37;;;;;;;7.60;4.75;;;11.30;99.90;;;;;;5031710;28;20072;-78
2021/12/12 13:24:20;;;;;;;7.55;4.75;;;11.20;99.90;;;;;;5032621;28;20029;-80
2021/12/12 13:28:27;;;;;;;8.57;4.38;;;11.20;99.90;;;;;;5032852;28;20093;-81
2021/12/12 13:30:27;;;;;;;8.70;5.10;;;11.10;99.90;;;;;;5023533;28;20394;-78
2021/12/12 13:33:08;;;;;;;7.07;4.53;;;11.10;99.90;;;;;;5032628;28;20405;-81
2021/12/12 13:36:01;;;;;;;8.88;6.22;;;11.10;99.90;;;;;;5032557;28;20025;-78
2021/12/12 13:38:33;;;;;;;8.63;5.00;;;11.10;99.90;;;;;;5032323;28;20071;-77
2021/12/12 13:41:32;;;;;;;10.10;5.80;;;11.10;99.90;;;;;;5032624;28;20032;-78
2021/12/12 13:44:11;;;;;;;9.52;5.32;;;11.10;99.90;;;;;;5032429;28;20076;-73
2021/12/12 13:46:47;;;;;;;9.00;5.50;;;11.00;99.90;;;;;;5031854;28;20044;-74